Аэропорт: Брянск. Брянск

ICAO: UUBP

METAR:
2018/11/21 15:00
UUBP 211500Z 29003MPS 9999 OVC016 M03/M05 Q1024 R34/CLRD70 NOSIG RMK QFE751/1001
METAR:
2010/09/15 10:45
TAF TAF UUBP 151045Z 1512/1524 18005G10MPS 9999 SCT030